ADDS METAR Data INFO
IDs: Format: Raw Decoded Include TAF

Data at: 2226 UTC 24 Jun 2018

KFFM 242215Z AUTO 13013KT 10SM SCT038 24/17 A2992 RMK AO2 LTG DSNT SW
KFFM 242156Z AUTO 12014G18KT 10SM SCT038 24/17 A2991 RMK AO2 LTG DSNT W
KFFM 242155Z AUTO 12011G18KT 10SM SCT038 24/17 A2991 RMK AO2 LTG DSNT W
KFFM 242135Z AUTO 11014G23KT 10SM SCT036 24/17 A2991 RMK AO2 LTG DSNT W
KFFM 242115Z AUTO 12014G24KT 10SM SCT038 25/17 A2991 RMK AO2 LTG DSNT W
KFFM 242055Z AUTO 13017G23KT 10SM CLR 25/17 A2991 RMK AO2
KFFM 242035Z AUTO 12015G22KT 10SM CLR 24/16 A2991 RMK AO2
KFFM 242015Z AUTO 11015G23KT 10SM SCT065 SCT075 24/16 A2992 RMK AO2
KFFM 241955Z AUTO 12014G19KT 10SM SCT045 BKN065 BKN075 24/16 A2993 RMK AO2
KFFM 241935Z AUTO 13015G22KT 10SM SCT034 SCT065 24/16 A2994 RMK AO2
KFFM 241915Z AUTO 13016G21KT 10SM SCT041 24/16 A2993 RMK AO2
KFFM 241855Z AUTO 13017G21KT 10SM SCT036 SCT044 24/16 A2993 RMK AO2
KFFM 241835Z AUTO 13014G19KT 10SM BKN032 BKN041 23/17 A2993 RMK AO2
KFFM 241815Z AUTO 12013G19KT 10SM SCT029 23/16 A2993 RMK AO2
KFFM 241756Z AUTO 12016G21KT 10SM CLR 23/16 A2993 RMK AO2
KFFM 241755Z AUTO 13015G20KT 10SM CLR 23/16 A2992 RMK AO2
KFFM 241735Z AUTO 12013G20KT 10SM SCT034 23/17 A2992 RMK AO2
KFFM 241715Z AUTO 11014G20KT 10SM SCT029 SCT034 SCT050 22/17 A2992 RMK AO2
KFFM 241655Z AUTO 11009KT 10SM SCT022 SCT050 21/17 A2992 RMK AO2
KFFM 241635Z AUTO 12009KT 10SM SCT024 BKN050 22/17 A2991 RMK AO2
KFFM 241615Z AUTO 12008KT 10SM SCT022 21/18 A2991 RMK AO2
KFFM 241555Z AUTO 12008KT 10SM CLR 21/17 A2990 RMK AO2 P0001
KFFM 241535Z AUTO 12009KT 3SM -RA SCT017 SCT033 BKN095 21/17 A2990 RMK AO2 P0001
KFFM 241515Z AUTO 13009KT 10SM SCT085 22/17 A2989 RMK AO2
KFFM 241455Z AUTO 12010KT 10SM BKN085 22/17 A2989 RMK AO2
KFFM 241435Z AUTO 12010G14KT 10SM SCT085 BKN095 22/17 A2988 RMK AO2
KFFM 241415Z AUTO 12007KT 10SM BKN085 22/17 A2988 RMK AO2
KFFM 241355Z AUTO 12007KT 10SM SCT085 22/17 A2987 RMK AO2
KFFM 241336Z AUTO 12010KT 10SM BKN085 21/17 A2987 RMK AO2
KFFM 241335Z AUTO 11010KT 10SM BKN085 21/17 A2987 RMK AO2
KFFM 241315Z AUTO 10007KT 10SM BKN085 21/16 A2986 RMK AO2
KFFM 241255Z AUTO 11007KT 10SM BKN085 21/17 A2985 RMK AO2
KFFM 241236Z AUTO 11006KT 10SM CLR 21/17 A2984 RMK AO2
KFFM 241235Z AUTO 12008KT 10SM CLR 21/17 A2984 RMK AO2
KFFM 241215Z AUTO 10007KT 10SM CLR 21/17 A2984 RMK AO2
KFFM 241155Z AUTO 11006KT 10SM CLR 21/16 A2983 RMK AO2
KFFM 241136Z AUTO 09006KT 10SM CLR 21/16 A2983 RMK AO2
KFFM 241135Z AUTO 09005KT 10SM CLR 21/16 A2983 RMK AO2
KFFM 241115Z AUTO 09006KT 10SM CLR 20/16 A2982 RMK AO2 LTG DSNT S
KFFM 241055Z AUTO 09004KT 10SM CLR 19/16 A2982 RMK AO2 LTG DSNT S
KFFM 241036Z AUTO 10004KT 10SM CLR 20/16 A2982 RMK AO2 LTG DSNT W
KFFM 241035Z AUTO 11004KT 10SM CLR 20/16 A2982 RMK AO2 LTG DSNT W
KFFM 241015Z AUTO 11005KT 10SM CLR 20/16 A2982 RMK AO2
KFFM 240955Z AUTO 11006KT 10SM CLR 20/16 A2982 RMK AO2 LTG DSNT SW
KFFM 240936Z AUTO 09005KT 10SM BKN120 20/16 A2981 RMK AO2
KFFM 240935Z AUTO 09005KT 10SM BKN120 20/16 A2981 RMK AO2
KFFM 240915Z AUTO 09004KT 10SM BKN120 20/16 A2981 RMK AO2
KFFM 240855Z AUTO 11004KT 10SM SCT065 120 21/16 A2980 RMK AO2
KFFM 240836Z AUTO 10004KT 10SM SCT090 120 20/16 A2980 RMK AO2
KFFM 240835Z AUTO 10003KT 10SM SCT090 120 20/16 A2980 RMK AO2
KFFM 240815Z AUTO 08005KT 10SM SCT090 120 21/16 A2980 RMK AO2
KFFM 240755Z AUTO 10005KT 10SM CLR 21/16 A2979 RMK AO2
KFFM 240736Z AUTO 10003KT 10SM VCTS CLR 21/16 A2980 RMK AO2 LTG DSNT SW
KFFM 240735Z AUTO 10003KT 10SM VCTS CLR 21/16 A2980 RMK AO2 LTG DSNT SW
KFFM 240715Z AUTO 09003KT 10SM CLR 21/16 A2979 RMK AO2 LTG DSNT SW
KFFM 240655Z AUTO 10004KT 10SM CLR 21/16 A2978 RMK AO2 LTG DSNT SW
KFFM 240636Z AUTO 10003KT 10SM CLR 21/16 A2978 RMK AO2
KFFM 240635Z AUTO 00000KT 10SM CLR 21/16 A2978 RMK AO2
KFFM 240615Z AUTO 09004KT 10SM CLR 21/16 A2979 RMK AO2
KFFM 240555Z AUTO 09003KT 10SM SCT055 21/16 A2979 RMK AO2
KFFM 240536Z AUTO 12004KT 10SM SCT055 22/16 A2979 RMK AO2 LTG DSNT SW
KFFM 240535Z AUTO 11005KT 10SM SCT055 22/16 A2979 RMK AO2 LTG DSNT SW
KFFM 240515Z AUTO 12003KT 10SM CLR 22/16 A2979 RMK AO2 LTG DSNT NE
KFFM 240455Z AUTO 12004KT 10SM CLR 22/16 A2978 RMK AO2
KFFM 240436Z AUTO 11004KT 10SM CLR 22/16 A2978 RMK AO2 LTG DSNT E
KFFM 240435Z AUTO 11004KT 10SM CLR 22/16 A2978 RMK AO2
KFFM 240415Z AUTO 12004KT 10SM SCT055 23/16 A2978 RMK AO2
KFFM 240355Z AUTO 11004KT 10SM BKN055 23/16 A2978 RMK AO2
KFFM 240336Z AUTO 11004KT 10SM BKN055 23/16 A2978 RMK AO2
KFFM 240335Z AUTO 11004KT 10SM BKN055 23/16 A2978 RMK AO2
KFFM 240315Z AUTO 12003KT 10SM CLR 23/16 A2978 RMK AO2 LTG DSNT N
KFFM 240255Z AUTO 13003KT 10SM CLR 23/16 A2976 RMK AO2
KFFM 240236Z AUTO 00000KT 10SM SCT055 23/16 A2975 RMK AO2
KFFM 240235Z AUTO 00000KT 10SM SCT055 23/16 A2975 RMK AO2
KFFM 240215Z AUTO 16003KT 10SM BKN055 23/16 A2975 RMK AO2
KFFM 240155Z AUTO 00000KT 10SM SCT055 24/16 A2974 RMK AO2 LTG DSNT N
KFFM 240136Z AUTO 12003KT 10SM CLR 25/16 A2974 RMK AO2
KFFM 240135Z AUTO 12003KT 10SM CLR 25/16 A2974 RMK AO2
KFFM 240115Z AUTO 14003KT 10SM CLR 25/16 A2974 RMK AO2 LTG DSNT N
KFFM 240055Z AUTO 17007KT 10SM SCT055 25/16 A2973 RMK AO2 LTG DSNT W
KFFM 240035Z AUTO 18008KT 10SM SCT055 26/15 A2972 RMK AO2 LTG DSNT NE
KFFM 240015Z AUTO 16006KT 10SM SCT055 26/15 A2971 RMK AO2
KFFM 232355Z AUTO 19008KT 10SM SCT055 27/14 A2971 RMK AO2
KFFM 232335Z AUTO 17008KT 10SM CLR 27/13 A2971 RMK AO2
KFFM 232315Z AUTO 16007KT 10SM SCT055 27/13 A2971 RMK AO2
KFFM 232256Z AUTO 16007KT 10SM SCT055 27/14 A2971 RMK AO2
KFFM 232255Z AUTO 16007KT 10SM SCT055 27/14 A2971 RMK AO2
KFFM 232235Z AUTO 16009KT 10SM SCT055 27/14 A2971 RMK AO2
KFFM 232215Z AUTO 15007KT 10SM SCT055 27/14 A2972 RMK AO2 LTG DSNT N
KFFM 232155Z AUTO 15009KT 10SM SCT055 27/14 A2971 RMK AO2
KFFM 232135Z AUTO 16007KT 10SM SCT055 27/13 A2971 RMK AO2
KFFM 232115Z AUTO 15008KT 10SM SCT055 SCT070 27/14 A2971 RMK AO2
KFFM 232055Z AUTO 19005KT 10SM SCT055 27/14 A2972 RMK AO2
KFFM 232035Z AUTO 20009KT 10SM CLR 27/14 A2972 RMK AO2
KFFM 232015Z AUTO 16005KT 10SM SCT075 27/14 A2972 RMK AO2
KFFM 231955Z AUTO 19005KT 10SM CLR 27/14 A2973 RMK AO2 LTG DSNT E
KFFM 231935Z AUTO 19006KT 10SM CLR 26/14 A2974 RMK AO2
KFFM 231915Z AUTO 17009KT 10SM SCT075 26/15 A2974 RMK AO2
KFFM 231855Z AUTO 20006KT 10SM SCT075 26/15 A2975 RMK AO2 LTG DSNT NW
KFFM 231835Z AUTO 18006KT 10SM SCT040 SCT075 26/16 A2975 RMK AO2
KFFM 231815Z AUTO 21004KT 10SM BKN040 24/16 A2975 RMK AO2
KFFM 231755Z AUTO 20006KT 10SM SCT070 24/16 A2976 RMK AO2
KFFM 231735Z AUTO 17007KT 10SM CLR 24/17 A2976 RMK AO2
KFFM 231715Z AUTO 22003KT 10SM SCT070 SCT080 24/17 A2976 RMK AO2
KFFM 231655Z AUTO 15003KT 10SM SCT050 SCT070 SCT085 23/17 A2977 RMK AO2
KFFM 231635Z AUTO 17004KT 10SM BKN050 BKN070 23/17 A2977 RMK AO2
KFFM 231615Z AUTO 15006KT 10SM SCT050 BKN060 BKN070 23/17 A2977 RMK AO2
KFFM 231555Z AUTO 18005KT 10SM SCT048 BKN070 BKN080 22/17 A2977 RMK AO2
KFFM 231535Z AUTO 19005KT 10SM SCT048 23/17 A2976 RMK AO2
KFFM 231515Z AUTO 00000KT 10SM CLR 23/17 A2976 RMK AO2
KFFM 231455Z AUTO 18004KT 10SM CLR 23/17 A2976 RMK AO2
KFFM 231435Z AUTO 16003KT 10SM CLR 22/17 A2976 RMK AO2
KFFM 231415Z AUTO 15003KT 10SM CLR 22/17 A2976 RMK AO2
KFFM 231355Z AUTO 17005KT 10SM SCT080 21/17 A2976 RMK AO2
KFFM 231335Z AUTO 17006KT 10SM SCT050 SCT080 21/17 A2976 RMK AO2
KFFM 231315Z AUTO 18007KT 10SM SCT050 21/18 A2976 RMK AO2
KFFM 231255Z AUTO 18006KT 10SM SCT050 21/17 A2976 RMK AO2
KFFM 231235Z AUTO 17005KT 10SM SCT055 19/18 A2976 RMK AO2
KFFM 231215Z AUTO 15004KT 10SM BKN055 19/18 A2976 RMK AO2
KFFM 231155Z AUTO 16005KT 10SM BKN055 OVC070 18/18 A2976 RMK AO2
KFFM 231135Z AUTO 16005KT 10SM SCT055 18/18 A2976 RMK AO2
KFFM 231115Z AUTO 16004KT 10SM CLR 17/17 A2976 RMK AO2
KFFM 231055Z AUTO 15003KT 10SM CLR 18/18 A2976 RMK AO2
KFFM 231035Z AUTO 15004KT 10SM CLR 18/18 A2976 RMK AO2